createdAt,value
2022-10-08T00:02:48.604Z,14.07
2022-10-08T00:05:35.606Z,14.14
2022-10-08T00:08:23.547Z,14.07
2022-10-08T00:11:13.374Z,14.12
2022-10-08T00:14:02.109Z,14.03
2022-10-08T00:16:49.061Z,13.85
2022-10-08T00:19:35.866Z,13.67
2022-10-08T00:22:23.584Z,13.70
2022-10-08T00:25:12.755Z,13.64
2022-10-08T00:28:00.061Z,13.86
2022-10-08T00:30:46.909Z,13.92
2022-10-08T00:33:36.457Z,14.06
2022-10-08T00:36:25.716Z,13.73
2022-10-08T00:39:15.611Z,13.92
2022-10-08T00:42:03.281Z,13.87
2022-10-08T00:45:00.766Z,13.92
2022-10-08T00:47:53.961Z,13.96
2022-10-08T00:50:41.484Z,13.90
2022-10-08T00:53:28.299Z,13.74
2022-10-08T00:56:15.346Z,13.95
2022-10-08T00:59:02.658Z,13.95
2022-10-08T01:01:53.537Z,13.88
2022-10-08T01:04:45.783Z,13.81
2022-10-08T01:07:54.013Z,14.02
2022-10-08T01:10:53.264Z,13.93
2022-10-08T01:13:56.827Z,14.10
2022-10-08T01:16:55.205Z,13.97
2022-10-08T01:20:13.047Z,13.97
2022-10-08T01:23:18.267Z,13.94
2022-10-08T01:26:32.628Z,14.02
2022-10-08T01:29:21.026Z,14.10
2022-10-08T01:32:14.183Z,14.02
2022-10-08T01:35:12.812Z,13.97
2022-10-08T01:38:04.671Z,13.88
2022-10-08T01:40:58.766Z,13.52
2022-10-08T01:43:52.089Z,13.41
2022-10-08T01:46:44.330Z,13.61
2022-10-08T01:49:38.562Z,13.69
2022-10-08T01:52:33.518Z,13.87
2022-10-08T01:55:28.872Z,13.80
2022-10-08T01:58:28.897Z,13.94
2022-10-08T02:01:22.016Z,13.85
2022-10-08T02:04:27.705Z,13.77
2022-10-08T02:07:18.177Z,13.73
2022-10-08T02:10:15.646Z,13.63
2022-10-08T02:13:03.786Z,13.63
2022-10-08T02:16:01.776Z,13.82
2022-10-08T02:19:02.714Z,13.97
2022-10-08T02:21:52.634Z,14.02
2022-10-08T02:24:49.683Z,14.10
2022-10-08T02:27:59.565Z,13.89
2022-10-08T02:30:53.895Z,13.96
2022-10-08T02:33:44.378Z,14.05
2022-10-08T02:36:19.588Z,14.07
2022-10-08T02:38:53.537Z,14.16
2022-10-08T02:41:23.375Z,14.15
2022-10-08T02:43:51.694Z,14.11
2022-10-08T02:46:24.154Z,14.13
2022-10-08T02:49:07.096Z,14.07
2022-10-08T02:51:40.662Z,14.00
2022-10-08T02:54:08.910Z,13.88
2022-10-08T02:56:43.629Z,13.87
2022-10-08T02:59:11.256Z,13.75
2022-10-08T03:02:12.115Z,13.70
2022-10-08T03:04:49.327Z,13.77
2022-10-08T03:07:22.940Z,13.76
2022-10-08T03:09:51.813Z,13.74
2022-10-08T03:12:18.944Z,13.73
2022-10-08T03:14:49.405Z,13.52
2022-10-08T03:17:26.042Z,13.28
2022-10-08T03:19:52.626Z,13.36
2022-10-08T03:22:24.652Z,13.34
2022-10-08T03:24:54.808Z,13.33
2022-10-08T03:27:23.136Z,13.45
2022-10-08T03:29:49.574Z,13.60
2022-10-08T03:32:16.258Z,13.57
2022-10-08T03:34:42.692Z,13.60
2022-10-08T03:37:09.142Z,13.67
2022-10-08T03:39:35.682Z,13.65
2022-10-08T03:42:02.156Z,13.69
2022-10-08T03:44:30.889Z,13.37
2022-10-08T03:46:59.735Z,13.49
2022-10-08T03:49:26.239Z,13.56
2022-10-08T03:51:55.766Z,13.59
2022-10-08T03:54:24.817Z,13.43
2022-10-08T03:56:51.300Z,13.49
2022-10-08T03:59:20.044Z,13.54
2022-10-08T04:01:47.616Z,13.56
2022-10-08T04:04:14.112Z,13.64
2022-10-08T04:06:45.259Z,13.69
2022-10-08T04:09:16.744Z,13.61
2022-10-08T04:11:47.336Z,13.66
2022-10-08T04:14:18.048Z,13.63
2022-10-08T04:16:48.919Z,13.54
2022-10-08T04:19:17.437Z,13.60
2022-10-08T04:21:43.983Z,13.40
2022-10-08T04:24:15.335Z,13.58
2022-10-08T04:26:41.889Z,13.64
2022-10-08T04:29:08.432Z,13.65
2022-10-08T04:31:34.890Z,13.65
2022-10-08T04:34:01.367Z,13.72
2022-10-08T04:36:27.838Z,13.69
2022-10-08T04:38:56.754Z,13.77
2022-10-08T04:41:27.788Z,13.78
2022-10-08T04:43:58.325Z,13.76
2022-10-08T04:46:24.964Z,13.75
2022-10-08T04:48:53.402Z,13.75
2022-10-08T04:51:24.218Z,13.75
2022-10-08T04:53:52.050Z,13.62
2022-10-08T04:56:21.958Z,13.60
2022-10-08T04:58:51.338Z,13.70
2022-10-08T05:01:22.856Z,13.72
2022-10-08T05:03:51.644Z,13.26
2022-10-08T05:06:23.668Z,13.45
2022-10-08T05:08:52.809Z,13.62
2022-10-08T05:11:24.177Z,13.73
2022-10-08T05:13:52.166Z,13.82
2022-10-08T05:16:21.552Z,13.85
2022-10-08T05:18:50.479Z,13.89
2022-10-08T05:21:19.619Z,13.85
2022-10-08T05:23:46.630Z,13.95
2022-10-08T05:26:18.407Z,13.99
2022-10-08T05:28:51.194Z,14.02
2022-10-08T05:31:18.016Z,14.00
2022-10-08T05:33:49.347Z,14.03
2022-10-08T05:36:24.902Z,14.03
2022-10-08T05:38:51.397Z,13.89
2022-10-08T05:41:22.717Z,13.99
2022-10-08T05:43:50.082Z,13.91
2022-10-08T05:46:17.841Z,13.93
2022-10-08T05:48:45.310Z,13.97
2022-10-08T05:51:15.080Z,14.00
2022-10-08T05:53:45.375Z,13.93
2022-10-08T05:56:13.652Z,14.01
2022-10-08T05:58:41.289Z,14.13
2022-10-08T06:01:20.034Z,14.16
2022-10-08T06:03:53.011Z,14.13
2022-10-08T06:06:22.836Z,14.27
2022-10-08T06:08:59.772Z,14.26
2022-10-08T06:11:30.876Z,14.23
2022-10-08T06:13:59.066Z,14.24
2022-10-08T06:16:29.383Z,14.35
2022-10-08T06:18:56.062Z,14.39
2022-10-08T06:21:27.386Z,14.38
2022-10-08T06:23:58.421Z,14.43
2022-10-08T06:26:35.188Z,14.45
2022-10-08T06:29:02.671Z,14.52
2022-10-08T06:31:31.633Z,14.53
2022-10-08T06:34:00.601Z,14.31
2022-10-08T06:36:30.359Z,14.15
2022-10-08T06:39:00.963Z,14.26
2022-10-08T06:41:30.471Z,14.41
2022-10-08T06:43:57.062Z,14.38
2022-10-08T06:46:23.619Z,14.48
2022-10-08T06:48:50.184Z,14.60
2022-10-08T06:51:18.425Z,14.56
2022-10-08T06:53:51.243Z,14.77
2022-10-08T06:56:22.130Z,14.74
2022-10-08T06:58:51.522Z,14.78
2022-10-08T07:01:30.450Z,14.72
2022-10-08T07:04:02.635Z,14.56
2022-10-08T07:06:29.739Z,14.78
2022-10-08T07:08:59.377Z,15.04
2022-10-08T07:11:28.744Z,15.11
2022-10-08T07:13:57.962Z,15.11
2022-10-08T07:16:27.907Z,15.11
2022-10-08T07:18:58.531Z,15.47
2022-10-08T07:21:26.293Z,15.50
2022-10-08T07:23:58.054Z,15.75
2022-10-08T07:26:29.421Z,15.81
2022-10-08T07:29:03.165Z,16.11
2022-10-08T07:31:32.497Z,16.29
2022-10-08T07:34:03.086Z,16.60
2022-10-08T07:36:30.449Z,16.81
2022-10-08T07:38:58.797Z,16.90
2022-10-08T07:41:25.928Z,17.12
2022-10-08T07:43:54.280Z,17.19
2022-10-08T07:46:26.370Z,17.24
2022-10-08T07:48:56.609Z,17.48
2022-10-08T07:51:23.348Z,17.54
2022-10-08T07:53:49.820Z,17.68
2022-10-08T07:56:21.217Z,17.93
2022-10-08T07:58:48.764Z,17.80
2022-10-08T08:01:26.453Z,17.68
2022-10-08T08:03:55.478Z,17.77
2022-10-08T08:06:27.348Z,17.97
2022-10-08T08:08:54.053Z,17.81
2022-10-08T08:11:24.658Z,17.60
2022-10-08T08:13:52.095Z,17.68
2022-10-08T08:16:27.214Z,17.79
2022-10-08T08:18:58.242Z,18.04
2022-10-08T08:21:31.496Z,18.24
2022-10-08T08:24:02.231Z,18.51
2022-10-08T08:26:33.935Z,18.89
2022-10-08T08:29:06.075Z,19.38
2022-10-08T08:31:37.683Z,19.90
2022-10-08T08:34:09.228Z,21.37
2022-10-08T08:36:41.916Z,22.37
2022-10-08T08:39:23.782Z,23.11
2022-10-08T08:42:11.457Z,22.64
2022-10-08T08:44:40.591Z,21.95
2022-10-08T08:47:11.398Z,21.81
2022-10-08T08:49:58.138Z,20.64
2022-10-08T08:52:27.853Z,21.39
2022-10-08T08:54:55.015Z,24.49
2022-10-08T08:57:33.881Z,25.41
2022-10-08T09:00:06.056Z,24.44
2022-10-08T09:02:40.527Z,27.60
2022-10-08T09:05:12.871Z,27.88
2022-10-08T09:08:07.627Z,25.53
2022-10-08T09:10:56.936Z,23.25
2022-10-08T09:13:41.168Z,23.30
2022-10-08T09:16:12.518Z,21.90
2022-10-08T09:18:44.893Z,21.16
2022-10-08T09:21:16.313Z,20.53
2022-10-08T09:23:43.178Z,20.98
2022-10-08T09:26:26.335Z,20.54
2022-10-08T09:28:52.762Z,21.46
2022-10-08T09:31:36.407Z,23.85
2022-10-08T09:34:17.893Z,22.38
2022-10-08T09:37:15.524Z,23.32
2022-10-08T09:40:13.814Z,28.96
2022-10-08T09:42:40.440Z,31.65
2022-10-08T09:45:35.098Z,35.26
2022-10-08T09:48:22.525Z,30.96
2022-10-08T09:50:57.924Z,31.61
2022-10-08T09:53:29.592Z,26.06
2022-10-08T09:55:59.964Z,23.78
2022-10-08T09:58:30.112Z,22.49
2022-10-08T10:01:12.321Z,22.62
2022-10-08T10:03:50.325Z,25.96
2022-10-08T10:06:34.949Z,24.47
2022-10-08T10:09:30.575Z,24.41
2022-10-08T10:12:04.807Z,24.16
2022-10-08T10:15:02.854Z,25.22
2022-10-08T10:17:38.732Z,28.64
2022-10-08T10:20:15.350Z,31.89
2022-10-08T10:22:56.498Z,34.82
2022-10-08T10:25:46.269Z,35.23
2022-10-08T10:28:19.642Z,34.07
2022-10-08T10:31:09.792Z,31.04
2022-10-08T10:33:47.540Z,34.78
2022-10-08T10:36:17.181Z,35.06
2022-10-08T10:38:51.983Z,37.42
2022-10-08T10:41:37.322Z,36.56
2022-10-08T10:44:15.178Z,31.48
2022-10-08T10:46:52.069Z,26.27
2022-10-08T10:49:22.834Z,23.95
2022-10-08T10:52:09.846Z,22.86
2022-10-08T10:55:09.259Z,21.73
2022-10-08T10:57:57.560Z,21.22
2022-10-08T11:00:30.172Z,21.09
2022-10-08T11:03:10.029Z,20.88
2022-10-08T11:05:39.243Z,21.06
2022-10-08T11:08:24.526Z,20.21
2022-10-08T11:11:00.902Z,20.40
2022-10-08T11:14:01.207Z,20.35
2022-10-08T11:16:43.503Z,20.14
2022-10-08T11:19:45.475Z,19.89
2022-10-08T11:22:20.407Z,19.03
2022-10-08T11:25:06.795Z,19.21
2022-10-08T11:27:43.574Z,19.41
2022-10-08T11:30:13.955Z,19.47
2022-10-08T11:32:43.490Z,19.30
2022-10-08T11:35:20.736Z,19.09
2022-10-08T11:38:04.238Z,19.27
2022-10-08T11:40:40.534Z,19.35
2022-10-08T11:43:24.529Z,19.42
2022-10-08T11:46:23.316Z,19.29
2022-10-08T11:48:50.495Z,19.21
2022-10-08T11:51:20.045Z,18.99
2022-10-08T11:53:58.886Z,19.35
2022-10-08T11:56:25.443Z,18.99
2022-10-08T11:58:59.316Z,18.62
2022-10-08T12:01:25.823Z,18.66
2022-10-08T12:04:19.443Z,18.74
2022-10-08T12:06:47.628Z,18.97
2022-10-08T12:09:25.924Z,18.56
2022-10-08T12:11:53.997Z,18.83
2022-10-08T12:14:22.573Z,18.90
2022-10-08T12:16:49.068Z,18.98
2022-10-08T12:19:34.014Z,19.13
2022-10-08T12:22:04.327Z,19.22
2022-10-08T12:24:36.951Z,18.83
2022-10-08T12:27:28.359Z,18.93
2022-10-08T12:30:00.175Z,19.06
2022-10-08T12:32:48.117Z,18.89
2022-10-08T12:35:26.857Z,18.98
2022-10-08T12:38:13.571Z,19.16
2022-10-08T12:41:08.093Z,19.26
2022-10-08T12:43:52.784Z,19.13
2022-10-08T12:46:29.696Z,18.96
2022-10-08T12:49:07.723Z,19.23
2022-10-08T12:51:40.201Z,19.10
2022-10-08T12:54:18.426Z,19.23
2022-10-08T12:56:45.156Z,19.30
2022-10-08T12:59:12.738Z,19.37
2022-10-08T13:01:44.804Z,19.28
2022-10-08T13:04:22.504Z,19.28
2022-10-08T13:06:51.355Z,19.24
2022-10-08T13:09:32.635Z,19.02
2022-10-08T13:12:05.141Z,19.18
2022-10-08T13:14:35.864Z,18.89
2022-10-08T13:17:03.178Z,19.00
2022-10-08T13:19:32.000Z,18.98
2022-10-08T13:22:08.723Z,19.25
2022-10-08T13:24:40.836Z,19.17
2022-10-08T13:27:41.600Z,19.12
2022-10-08T13:30:31.944Z,18.71
2022-10-08T13:33:03.887Z,18.87
2022-10-08T13:35:33.290Z,19.25
2022-10-08T13:38:09.112Z,19.20
2022-10-08T13:40:35.878Z,19.15
2022-10-08T13:43:06.618Z,19.12
2022-10-08T13:45:36.823Z,19.08
2022-10-08T13:48:03.369Z,19.22
2022-10-08T13:50:29.842Z,19.44
2022-10-08T13:53:00.037Z,19.17
2022-10-08T13:55:32.046Z,18.98
2022-10-08T13:58:03.161Z,18.60
2022-10-08T14:00:31.366Z,18.45
2022-10-08T14:02:57.988Z,18.42
2022-10-08T14:05:27.116Z,18.39
2022-10-08T14:08:00.594Z,18.48
2022-10-08T14:10:31.802Z,18.47
2022-10-08T14:12:58.272Z,18.50
2022-10-08T14:15:24.750Z,18.40
2022-10-08T14:17:53.759Z,18.48
2022-10-08T14:20:20.467Z,18.46
2022-10-08T14:22:47.008Z,18.63
2022-10-08T14:25:22.661Z,18.77
2022-10-08T14:27:52.164Z,18.57
2022-10-08T14:30:19.173Z,18.68
2022-10-08T14:32:48.271Z,18.83
2022-10-08T14:35:14.823Z,18.60
2022-10-08T14:37:41.275Z,18.75
2022-10-08T14:40:18.647Z,18.50
2022-10-08T14:42:50.458Z,18.33
2022-10-08T14:45:17.555Z,18.14
2022-10-08T14:47:48.974Z,18.03
2022-10-08T14:50:17.712Z,17.87
2022-10-08T14:52:44.862Z,17.94
2022-10-08T14:55:15.992Z,17.92
2022-10-08T14:57:42.602Z,18.07
2022-10-08T15:00:14.723Z,18.05
2022-10-08T15:02:41.176Z,18.09
2022-10-08T15:05:08.021Z,18.05
2022-10-08T15:07:34.615Z,17.96
2022-10-08T15:10:01.063Z,17.96
2022-10-08T15:12:32.184Z,17.93
2022-10-08T15:14:58.648Z,17.93
2022-10-08T15:17:25.229Z,17.75
2022-10-08T15:19:54.148Z,17.71
2022-10-08T15:22:20.665Z,17.65
2022-10-08T15:24:47.113Z,17.67
2022-10-08T15:27:16.204Z,17.46
2022-10-08T15:29:50.816Z,17.24
2022-10-08T15:32:17.272Z,17.29
2022-10-08T15:34:43.694Z,17.42
2022-10-08T15:37:12.418Z,17.38
2022-10-08T15:39:41.394Z,17.40
2022-10-08T15:42:10.329Z,17.48
2022-10-08T15:44:36.786Z,17.28
2022-10-08T15:47:07.648Z,17.07
2022-10-08T15:49:40.242Z,17.06
2022-10-08T15:52:10.599Z,17.05
2022-10-08T15:54:38.957Z,16.87
2022-10-08T15:57:06.274Z,16.92
2022-10-08T15:59:33.538Z,16.84
2022-10-08T16:02:20.610Z,16.83
2022-10-08T16:04:49.856Z,16.81
2022-10-08T16:07:19.208Z,16.85
2022-10-08T16:09:50.016Z,16.87
2022-10-08T16:12:18.735Z,16.83
2022-10-08T16:14:45.251Z,16.70
2022-10-08T16:17:11.782Z,16.64
2022-10-08T16:19:38.404Z,16.63
2022-10-08T16:22:05.383Z,16.53
2022-10-08T16:24:31.890Z,16.51
2022-10-08T16:27:00.936Z,16.34
2022-10-08T16:29:27.485Z,16.38
2022-10-08T16:31:53.974Z,16.41
2022-10-08T16:34:24.276Z,16.36
2022-10-08T16:36:51.270Z,16.21
2022-10-08T16:39:24.144Z,15.97
2022-10-08T16:41:50.507Z,16.10
2022-10-08T16:44:19.578Z,16.13
2022-10-08T16:46:51.458Z,15.93
2022-10-08T16:49:26.565Z,15.83
2022-10-08T16:51:59.557Z,15.90
2022-10-08T16:54:27.458Z,15.91
2022-10-08T16:56:54.439Z,15.62
2022-10-08T16:59:25.702Z,15.61
2022-10-08T17:01:55.315Z,15.64
2022-10-08T17:04:40.946Z,15.47
2022-10-08T17:07:27.729Z,15.67
2022-10-08T17:10:14.632Z,15.42
2022-10-08T17:13:03.495Z,15.57
2022-10-08T17:16:04.634Z,15.54
2022-10-08T17:18:53.524Z,15.30
2022-10-08T17:21:42.924Z,15.35
2022-10-08T17:24:29.748Z,15.26
2022-10-08T17:27:16.557Z,15.32
2022-10-08T17:30:04.022Z,15.38
2022-10-08T17:32:50.897Z,15.34
2022-10-08T17:35:37.670Z,15.37
2022-10-08T17:38:24.658Z,14.96
2022-10-08T17:41:17.318Z,14.94
2022-10-08T17:44:07.421Z,15.07
2022-10-08T17:46:54.229Z,14.85
2022-10-08T17:49:41.024Z,14.99
2022-10-08T17:52:27.795Z,14.66
2022-10-08T17:55:17.094Z,14.57
2022-10-08T17:58:06.142Z,14.59
2022-10-08T18:01:01.401Z,14.63
2022-10-08T18:03:56.903Z,14.65
2022-10-08T18:06:46.290Z,14.63
2022-10-08T18:09:33.257Z,14.56
2022-10-08T18:12:20.074Z,14.35
2022-10-08T18:15:07.268Z,14.18
2022-10-08T18:17:54.156Z,14.38
2022-10-08T18:20:41.038Z,14.16
2022-10-08T18:23:32.593Z,13.97
2022-10-08T18:26:28.359Z,13.82
2022-10-08T18:29:15.336Z,13.98
2022-10-08T18:32:02.215Z,13.97
2022-10-08T18:34:49.138Z,13.77
2022-10-08T18:37:35.906Z,13.83
2022-10-08T18:40:22.731Z,13.80
2022-10-08T18:43:09.538Z,13.73
2022-10-08T18:45:56.319Z,13.52
2022-10-08T18:48:43.617Z,13.64
2022-10-08T18:51:31.500Z,13.61
2022-10-08T18:54:18.368Z,13.67
2022-10-08T18:57:06.331Z,13.69
2022-10-08T18:59:53.375Z,13.69
2022-10-08T19:02:40.234Z,13.55
2022-10-08T19:05:27.160Z,13.62
2022-10-08T19:08:14.010Z,13.38
2022-10-08T19:11:09.152Z,13.48
2022-10-08T19:13:56.197Z,13.48
2022-10-08T19:16:43.855Z,13.39
2022-10-08T19:19:31.804Z,13.26
2022-10-08T19:22:18.674Z,13.38
2022-10-08T19:25:08.127Z,13.37
2022-10-08T19:27:54.926Z,13.31
2022-10-08T19:30:41.757Z,13.23
2022-10-08T19:33:28.535Z,13.07
2022-10-08T19:36:15.761Z,13.18
2022-10-08T19:39:10.565Z,13.04
2022-10-08T19:41:57.490Z,12.95
2022-10-08T19:44:44.316Z,12.93
2022-10-08T19:47:31.139Z,12.78
2022-10-08T19:50:17.896Z,12.79
2022-10-08T19:53:04.699Z,12.91
2022-10-08T19:55:51.656Z,12.71
2022-10-08T19:58:43.921Z,12.52
2022-10-08T20:01:36.446Z,12.55
2022-10-08T20:04:23.894Z,12.54
2022-10-08T20:07:10.660Z,12.46
2022-10-08T20:09:57.733Z,12.55
2022-10-08T20:12:44.621Z,12.54
2022-10-08T20:15:35.648Z,12.49
2022-10-08T20:18:24.759Z,12.60
2022-10-08T20:21:12.732Z,12.45
2022-10-08T20:24:00.017Z,12.38
2022-10-08T20:26:48.779Z,12.31
2022-10-08T20:29:35.735Z,12.40
2022-10-08T20:32:22.600Z,12.26
2022-10-08T20:35:09.676Z,12.37
2022-10-08T20:37:56.420Z,12.37
2022-10-08T20:40:43.185Z,12.32
2022-10-08T20:43:31.407Z,12.25
2022-10-08T20:46:19.156Z,12.17
2022-10-08T20:49:06.741Z,12.12
2022-10-08T20:51:53.504Z,12.23
2022-10-08T20:54:40.297Z,12.25
2022-10-08T20:57:27.097Z,12.17
2022-10-08T21:00:16.312Z,12.07
2022-10-08T21:03:05.372Z,11.84
2022-10-08T21:05:52.158Z,11.90
2022-10-08T21:08:40.345Z,11.99
2022-10-08T21:11:30.294Z,12.05
2022-10-08T21:14:19.696Z,12.03
2022-10-08T21:17:06.492Z,12.00
2022-10-08T21:19:53.258Z,11.48
2022-10-08T21:22:40.222Z,11.64
2022-10-08T21:25:26.975Z,11.46
2022-10-08T21:28:13.817Z,11.47
2022-10-08T21:31:03.951Z,11.61
2022-10-08T21:33:52.637Z,11.66
2022-10-08T21:36:44.601Z,11.61
2022-10-08T21:39:31.450Z,11.34
2022-10-08T21:42:18.260Z,11.32
2022-10-08T21:45:05.581Z,11.15
2022-10-08T21:47:52.316Z,11.40
2022-10-08T21:50:39.079Z,11.44
2022-10-08T21:53:27.324Z,11.13
2022-10-08T21:56:17.212Z,11.30
2022-10-08T21:59:06.281Z,11.32
2022-10-08T22:01:53.158Z,10.93
2022-10-08T22:04:39.960Z,10.88
2022-10-08T22:07:26.731Z,11.13
2022-10-08T22:10:13.498Z,11.18
2022-10-08T22:13:00.270Z,11.22
2022-10-08T22:15:58.401Z,11.22
2022-10-08T22:18:45.248Z,11.21
2022-10-08T22:21:32.606Z,11.05
2022-10-08T22:24:19.409Z,11.08
2022-10-08T22:27:06.376Z,11.04
2022-10-08T22:29:53.175Z,10.91
2022-10-08T22:32:39.972Z,10.66
2022-10-08T22:35:29.097Z,10.79
2022-10-08T22:38:15.876Z,10.84
2022-10-08T22:41:04.665Z,10.81
2022-10-08T22:43:51.696Z,10.72
2022-10-08T22:46:39.914Z,10.72
2022-10-08T22:49:26.723Z,10.72
2022-10-08T22:52:13.552Z,10.70
2022-10-08T22:55:00.341Z,10.75
2022-10-08T22:57:47.524Z,10.75
2022-10-08T23:00:34.712Z,10.54
2022-10-08T23:03:23.564Z,10.54
2022-10-08T23:06:15.467Z,10.56
2022-10-08T23:09:10.827Z,10.55
2022-10-08T23:11:59.824Z,10.51
2022-10-08T23:14:46.612Z,10.03
2022-10-08T23:17:33.397Z,10.27
2022-10-08T23:20:20.151Z,10.25
2022-10-08T23:23:06.978Z,10.35
2022-10-08T23:25:55.520Z,10.34
2022-10-08T23:28:43.719Z,10.32
2022-10-08T23:31:35.897Z,10.35
2022-10-08T23:34:22.756Z,10.08
2022-10-08T23:37:09.531Z,10.19
2022-10-08T23:39:58.588Z,10.20
2022-10-08T23:42:45.632Z,10.06
2022-10-08T23:45:32.663Z,9.92
2022-10-08T23:48:19.435Z,9.82
2022-10-08T23:51:07.930Z,9.74
2022-10-08T23:53:55.284Z,9.76
2022-10-08T23:56:42.095Z,9.61
2022-10-08T23:59:28.856Z,9.73
